Time;durP1;ratioP1;P1;durP2;ratioP2;P2;SDS_P1;SDS_P2;PMS_P1;PMS_P2;Temp;Humidity;BMP_temperature;BMP_pressure;BME280_temperature;BME280_humidity;BME280_pressure;Samples;Min_cycle;Max_cycle;Signal;HPM_P1;HPM_P2
2022/10/08 00:00:46;;;;;;;9.95;4.60;;;;;;;13.11;100.00;100706.59;5112509;28;20040;-76
2022/10/08 00:03:13;;;;;;;11.45;4.97;;;;;;;13.10;100.00;100744.06;5115058;28;20032;-77
2022/10/08 00:05:39;;;;;;;5.63;4.22;;;;;;;13.01;100.00;100729.78;5115011;28;20019;-77
2022/10/08 00:08:05;;;;;;;8.10;4.88;;;;;;;13.18;100.00;100795.75;5116004;28;20028;-75
2022/10/08 00:10:31;;;;;;;7.60;4.78;;;;;;;13.03;100.00;100776.56;5116141;28;20066;-75
2022/10/08 00:12:58;;;;;;;8.68;4.43;;;;;;;13.13;100.00;100738.03;5115960;28;20405;-75
2022/10/08 00:15:25;;;;;;;9.75;4.88;;;;;;;13.29;100.00;100787.84;5115788;28;20055;-76
2022/10/08 00:17:50;;;;;;;10.88;4.03;;;;;;;13.16;100.00;100787.31;5114589;28;20034;-76
2022/10/08 00:20:16;;;;;;;5.93;4.45;;;;;;;12.88;100.00;100712.25;5114422;28;20035;-77
2022/10/08 00:22:41;;;;;;;6.82;4.20;;;;;;;12.85;100.00;100732.78;5114590;28;20553;-75
2022/10/08 00:25:08;;;;;;;7.30;4.18;;;;;;;12.82;100.00;100697.94;5115893;28;20028;-76
2022/10/08 00:27:33;;;;;;;7.68;4.30;;;;;;;12.92;100.00;100724.91;5116140;28;20023;-78
2022/10/08 00:29:59;;;;;;;8.82;4.40;;;;;;;12.83;100.00;100726.88;5114944;28;20027;-75
2022/10/08 00:32:24;;;;;;;7.00;4.18;;;;;;;12.56;100.00;100705.41;5115747;28;20032;-77
2022/10/08 00:34:50;;;;;;;9.85;4.13;;;;;;;13.11;100.00;100765.31;5115904;28;20510;-77
2022/10/08 00:37:15;;;;;;;8.13;4.32;;;;;;;13.24;100.00;100751.34;5115717;28;20028;-76
2022/10/08 00:39:41;;;;;;;5.93;4.30;;;;;;;13.13;100.00;100758.47;5115399;28;20053;-76
2022/10/08 00:42:07;;;;;;;6.90;4.32;;;;;;;13.02;100.00;100690.63;5115577;28;20382;-78
2022/10/08 00:45:13;;;;;;;6.05;4.30;;;;;;;13.45;100.00;100759.28;5115189;28;20370;-75
2022/10/08 00:47:45;;;;;;;9.93;4.85;;;;;;;13.88;100.00;100751.25;5092395;28;20055;-75
2022/10/08 00:50:30;;;;;;;12.48;5.22;;;;;;;13.34;100.00;100761.28;5115587;28;20035;-76
2022/10/08 00:53:00;;;;;;;11.02;5.10;;;;;;;13.30;100.00;100695.00;5113757;28;20089;-76
2022/10/08 00:55:28;;;;;;;10.10;5.30;;;;;;;13.69;100.00;100742.41;5115288;28;20437;-75
2022/10/08 00:57:55;;;;;;;10.15;5.18;;;;;;;13.62;100.00;100705.16;5115071;28;20497;-77
2022/10/08 01:00:23;;;;;;;7.95;5.32;;;;;;;13.48;100.00;100684.28;5115469;28;20035;-76
2022/10/08 01:02:49;;;;;;;7.18;5.13;;;;;;;14.23;100.00;100745.94;5114212;28;20225;-79
2022/10/08 01:05:18;;;;;;;10.18;5.20;;;;;;;13.61;100.00;100734.97;5113791;28;20126;-77
2022/10/08 01:07:58;;;;;;;8.20;4.97;;;;;;;14.06;100.00;100737.09;5115056;28;20420;-76
2022/10/08 01:10:41;;;;;;;7.22;4.97;;;;;;;14.23;100.00;100745.09;5114849;28;20034;-74
2022/10/08 01:13:28;;;;;;;6.65;4.78;;;;;;;14.27;100.00;100744.09;5114295;28;20036;-75
2022/10/08 01:15:59;;;;;;;9.98;5.25;;;;;;;14.18;100.00;100745.22;5114951;28;20410;-76
2022/10/08 01:18:30;;;;;;;9.63;5.10;;;;;;;14.29;100.00;100727.88;5115126;28;20092;-77
2022/10/08 01:21:10;;;;;;;9.13;5.47;;;;;;;14.21;100.00;100668.41;5113788;28;20051;-75
2022/10/08 01:24:05;;;;;;;7.25;5.22;;;;;;;14.70;100.00;100739.34;5113647;28;20401;-78
2022/10/08 01:27:05;;;;;;;9.48;5.20;;;;;;;13.82;100.00;100614.25;5076296;28;20039;-77
2022/10/08 01:29:40;;;;;;;7.90;5.28;;;;;;;14.31;100.00;100730.38;5114954;28;20024;-78
2022/10/08 01:32:21;;;;;;;7.68;5.53;;;;;;;14.40;100.00;100732.66;5099294;27;20032;-78
2022/10/08 01:34:54;;;;;;;7.37;5.60;;;;;;;13.87;100.00;100673.72;5093759;28;20061;-77
2022/10/08 01:37:28;;;;;;;7.93;5.70;;;;;;;14.22;100.00;100708.44;5110672;28;20077;-78
2022/10/08 01:39:57;;;;;;;6.78;4.85;;;;;;;14.09;100.00;100657.72;5114174;28;20055;-76
2022/10/08 01:42:26;;;;;;;7.45;5.57;;;;;;;14.16;100.00;100664.34;5114579;28;20027;-75
2022/10/08 01:45:00;;;;;;;9.15;5.70;;;;;;;14.36;100.00;100718.28;5114146;28;20066;-77
2022/10/08 01:47:27;;;;;;;7.00;5.65;;;;;;;14.40;100.00;100704.53;5114565;28;20023;-75
2022/10/08 01:50:04;;;;;;;10.20;5.45;;;;;;;14.48;100.00;100711.03;5112069;28;20027;-76
2022/10/08 01:52:39;;;;;;;5.88;5.28;;;;;;;14.35;100.00;100693.56;5111121;27;20078;-76
2022/10/08 01:55:19;;;;;;;8.40;5.78;;;;;;;14.87;100.00;100718.31;5094142;28;20085;-77
2022/10/08 01:57:47;;;;;;;11.82;5.32;;;;;;;14.61;100.00;100656.03;5093391;28;20119;-77
2022/10/08 02:00:14;;;;;;;10.73;5.28;;;;;;;14.90;100.00;100710.50;5093075;28;20034;-77
2022/10/08 02:02:41;;;;;;;8.35;5.63;;;;;;;14.19;100.00;100608.78;5093349;28;20024;-78
2022/10/08 02:05:07;;;;;;;7.03;5.32;;;;;;;14.51;100.00;100651.25;5094209;28;20028;-80
2022/10/08 02:07:36;;;;;;;11.57;5.40;;;;;;;14.82;100.00;100674.09;5093684;28;20028;-77
2022/10/08 02:10:28;;;;;;;6.53;5.47;;;;;;;15.20;100.00;100722.28;5093031;28;20028;-76
2022/10/08 02:12:54;;;;;;;6.90;5.53;;;;;;;14.85;100.00;100667.16;5089802;28;20208;-77
2022/10/08 02:15:21;;;;;;;6.47;5.07;;;;;;;15.05;100.00;100718.53;5093055;28;20047;-76
2022/10/08 02:18:14;;;;;;;9.60;5.53;;;;;;;14.95;100.00;100689.00;5093382;28;20030;-78
2022/10/08 02:20:50;;;;;;;7.55;5.50;;;;;;;15.09;100.00;100709.00;5092634;28;20047;-78
2022/10/08 02:23:21;;;;;;;8.77;5.35;;;;;;;15.19;100.00;100712.94;5092118;28;20043;-79
2022/10/08 02:25:59;;;;;;;10.25;5.68;;;;;;;15.01;100.00;100703.31;5093521;28;20028;-79
2022/10/08 02:28:34;;;;;;;10.85;5.90;;;;;;;15.18;100.00;100712.09;5092118;28;20531;-79
2022/10/08 02:31:14;;;;;;;13.45;5.57;;;;;;;15.18;100.00;100716.38;5094420;28;20031;-76
2022/10/08 02:33:53;;;;;;;8.70;5.53;;;;;;;15.21;100.00;100714.53;5113415;28;20032;-73
2022/10/08 02:36:24;;;;;;;9.45;5.40;;;;;;;15.83;100.00;100701.19;5112729;27;20038;-75
2022/10/08 02:38:53;;;;;;;7.60;6.00;;;;;;;14.98;100.00;100680.34;5112901;28;20019;-75
2022/10/08 02:41:28;;;;;;;7.30;5.28;;;;;;;15.13;100.00;100711.41;5113092;28;20032;-75
2022/10/08 02:43:58;;;;;;;7.63;5.63;;;;;;;15.02;100.00;100708.38;5113152;28;20102;-75
2022/10/08 02:46:28;;;;;;;10.18;6.10;;;;;;;15.10;100.00;100708.09;5112368;28;20027;-74
2022/10/08 02:49:08;;;;;;;7.65;5.55;;;;;;;15.07;100.00;100716.75;5112397;28;20476;-75
2022/10/08 02:51:39;;;;;;;6.70;6.00;;;;;;;15.02;100.00;100682.78;5112415;28;20031;-79
2022/10/08 02:54:07;;;;;;;6.70;5.57;;;;;;;15.23;100.00;100704.25;5112405;28;20123;-76
2022/10/08 02:56:42;;;;;;;9.48;5.70;;;;;;;15.23;100.00;100714.50;5112529;28;20169;-73
2022/10/08 02:59:09;;;;;;;9.38;6.00;;;;;;;15.10;100.00;100650.03;5112224;28;20370;-75
2022/10/08 03:01:47;;;;;;;10.68;5.70;;;;;;;15.35;100.00;100719.19;5112375;28;20034;-73
2022/10/08 03:04:37;;;;;;;7.70;5.60;;;;;;;15.28;100.00;100710.03;5111859;28;20530;-74
2022/10/08 03:07:04;;;;;;;11.25;5.60;;;;;;;14.81;100.00;100650.22;5109263;28;20036;-74
2022/10/08 03:09:35;;;;;;;9.50;5.90;;;;;;;14.94;100.00;100660.88;5091103;28;20039;-77
2022/10/08 03:12:00;;;;;;;8.68;5.75;;;;;;;15.20;100.00;100710.31;5092468;28;20028;-76
2022/10/08 03:14:27;;;;;;;9.27;5.90;;;;;;;14.72;100.00;100630.06;5090881;28;20036;-75
2022/10/08 03:16:53;;;;;;;9.00;6.32;;;;;;;15.22;100.00;100717.94;5092127;28;20032;-76
2022/10/08 03:19:19;;;;;;;12.32;6.13;;;;;;;14.16;100.00;100677.97;5090953;28;20024;-79
2022/10/08 03:21:48;;;;;;;11.30;6.18;;;;;;;13.61;100.00;100714.53;5091867;28;20031;-74
2022/10/08 03:24:14;;;;;;;10.95;6.75;;;;;;;13.42;100.00;100695.50;5091631;28;20529;-73
2022/10/08 03:26:41;;;;;;;11.48;7.80;;;;;;;13.37;100.00;100666.69;5091835;28;20615;-79
2022/10/08 03:29:07;;;;;;;10.68;7.13;;;;;;;13.23;100.00;100660.31;5091866;28;20031;-77
2022/10/08 03:31:32;;;;;;;10.45;7.38;;;;;;;12.96;100.00;100659.31;5091752;28;20032;-80
2022/10/08 03:33:58;;;;;;;13.10;6.63;;;;;;;12.88;100.00;100664.63;5091758;28;20116;-72
2022/10/08 03:36:24;;;;;;;18.40;11.00;;;;;;;12.93;100.00;100661.97;5089444;28;20047;-72
2022/10/08 03:38:50;;;;;;;17.20;11.20;;;;;;;12.91;100.00;100691.78;5107872;28;20032;-70
2022/10/08 03:41:16;;;;;;;15.45;9.52;;;;;;;12.80;100.00;100665.69;5111109;28;20059;-73
2022/10/08 03:43:42;;;;;;;17.38;8.63;;;;;;;13.03;100.00;100727.19;5110033;28;20028;-76
2022/10/08 03:46:09;;;;;;;16.63;11.75;;;;;;;12.55;100.00;100664.66;5110608;28;20035;-72
2022/10/08 03:48:35;;;;;;;21.15;15.02;;;;;;;12.88;100.00;100713.09;5098240;28;20563;-72
2022/10/08 03:51:06;;;;;;;16.02;11.20;;;;;;;12.90;100.00;100718.16;5091107;28;20028;-79
2022/10/08 03:53:37;;;;;;;14.50;8.85;;;;;;;12.62;100.00;100663.59;5111496;28;20516;-79
2022/10/08 03:56:04;;;;;;;13.80;7.28;;;;;;;13.03;100.00;100722.09;5111601;28;20028;-77
2022/10/08 03:58:30;;;;;;;9.50;7.30;;;;;;;12.88;100.00;100718.22;5111274;28;20047;-76
2022/10/08 04:01:01;;;;;;;11.95;7.28;;;;;;;12.69;100.00;100653.22;5110297;28;20040;-78
2022/10/08 04:03:28;;;;;;;8.88;5.22;;;;;;;12.42;100.00;100674.31;5112118;28;20027;-77
2022/10/08 04:05:53;;;;;;;11.35;6.65;;;;;;;12.71;100.00;100635.31;5111069;28;20051;-77
2022/10/08 04:08:19;;;;;;;11.20;6.80;;;;;;;12.99;100.00;100716.22;5111309;28;20390;-81
2022/10/08 04:10:44;;;;;;;11.30;7.30;;;;;;;12.54;100.00;100638.28;5110483;28;20547;-83
2022/10/08 04:13:10;;;;;;;10.45;7.03;;;;;;;13.24;100.00;100702.84;5111216;28;20169;-81
2022/10/08 04:15:36;;;;;;;12.25;7.20;;;;;;;12.43;100.00;100653.03;5110353;28;20474;-81
2022/10/08 04:18:01;;;;;;;12.48;7.65;;;;;;;13.09;100.00;100670.06;5110600;28;20034;-78
2022/10/08 04:20:27;;;;;;;12.95;6.80;;;;;;;13.34;100.00;100712.75;5111978;28;20402;-80
2022/10/08 04:22:52;;;;;;;15.60;7.50;;;;;;;12.70;100.00;100677.00;5111021;28;20027;-78
2022/10/08 04:25:18;;;;;;;15.18;8.52;;;;;;;12.97;100.00;100728.16;5110829;28;20072;-74
2022/10/08 04:27:47;;;;;;;19.17;8.38;;;;;;;13.02;100.00;100715.31;5111106;28;20028;-80
2022/10/08 04:30:14;;;;;;;14.13;8.60;;;;;;;12.98;100.00;100717.09;5111082;28;20028;-81
2022/10/08 04:32:39;;;;;;;16.73;8.90;;;;;;;12.60;100.00;100665.34;5111637;28;20049;-81
2022/10/08 04:35:05;;;;;;;19.77;11.80;;;;;;;12.53;100.00;100644.28;5112219;28;20031;-77
2022/10/08 04:37:30;;;;;;;18.30;12.80;;;;;;;12.86;100.00;100714.00;5110332;28;20039;-75
2022/10/08 04:39:56;;;;;;;20.38;13.32;;;;;;;13.17;100.00;100717.50;5111890;28;20413;-77
2022/10/08 04:42:21;;;;;;;24.63;13.82;;;;;;;13.55;100.00;100655.94;5111798;28;20028;-76
2022/10/08 04:44:47;;;;;;;16.85;12.25;;;;;;;13.94;100.00;100649.63;5111703;28;20565;-75
2022/10/08 04:47:12;;;;;;;18.50;11.25;;;;;;;13.52;100.00;100716.53;5113422;28;20445;-77
2022/10/08 04:49:37;;;;;;;20.52;11.95;;;;;;;13.69;100.00;100670.88;5115414;28;20160;-74
2022/10/08 04:52:03;;;;;;;20.65;12.45;;;;;;;14.75;100.00;100697.38;5115648;28;20031;-75
2022/10/08 04:54:28;;;;;;;22.30;13.35;;;;;;;14.92;100.00;100708.72;5115130;28;20228;-76
2022/10/08 04:56:54;;;;;;;23.95;13.13;;;;;;;17.78;100.00;100698.97;5115268;28;20413;-76
2022/10/08 04:59:19;;;;;;;21.73;12.15;;;;;;;16.33;100.00;100718.03;5115205;28;20028;-76
2022/10/08 05:01:44;;;;;;;16.77;11.73;;;;;;;14.51;100.00;100716.06;5114298;28;20123;-76
2022/10/08 05:04:10;;;;;;;16.77;10.95;;;;;;;17.69;100.00;100691.69;5114060;28;20074;-76
2022/10/08 05:06:35;;;;;;;17.15;10.88;;;;;;;18.72;100.00;100716.72;5115284;28;20031;-74
2022/10/08 05:09:02;;;;;;;20.75;11.95;;;;;;;18.87;100.00;100712.56;5114533;28;20043;-75
2022/10/08 05:11:29;;;;;;;23.45;12.60;;;;;;;19.16;100.00;100731.69;5113678;28;20046;-75
2022/10/08 05:13:56;;;;;;;23.38;14.10;;;;;;;18.85;100.00;100724.69;5115104;28;20039;-75
2022/10/08 05:16:23;;;;;;;24.70;14.68;;;;;;;19.19;100.00;100631.00;5114407;28;20031;-74
2022/10/08 05:18:50;;;;;;;27.90;14.80;;;;;;;19.56;100.00;100757.13;5114140;28;20036;-76
2022/10/08 05:21:19;;;;;;;19.80;12.30;;;;;;;18.64;100.00;100700.81;5115250;28;20110;-76
2022/10/08 05:23:46;;;;;;;21.10;11.18;;;;;;;18.87;100.00;100695.34;5114488;28;20453;-76
2022/10/08 05:26:20;;;;;;;20.50;10.77;;;;;;;18.94;100.00;100778.34;5114899;28;20028;-78
2022/10/08 05:28:46;;;;;;;20.50;10.30;;;;;;;18.99;100.00;100738.53;5114369;28;20043;-79
2022/10/08 05:31:13;;;;;;;20.27;10.00;;;;;;;19.31;100.00;100795.41;5113075;28;20031;-78
2022/10/08 05:33:39;;;;;;;19.83;10.98;;;;;;;18.41;100.00;100806.66;5113949;28;20036;-78
2022/10/08 05:36:06;;;;;;;24.13;11.52;;;;;;;17.38;100.00;100742.75;5114615;28;20069;-79
2022/10/08 05:38:33;;;;;;;29.67;11.85;;;;;;;16.65;100.00;100745.84;5114202;28;20486;-78
2022/10/08 05:41:15;;;;;;;24.42;12.00;;;;;;;15.96;100.00;100681.88;5114254;28;20075;-77
2022/10/08 05:43:41;;;;;;;22.35;12.00;;;;;;;16.73;100.00;100748.09;5114643;28;20085;-78
2022/10/08 05:46:07;;;;;;;22.98;11.63;;;;;;;16.71;100.00;100737.06;5114416;28;20032;-78
2022/10/08 05:48:33;;;;;;;30.05;12.70;;;;;;;16.91;100.00;100691.69;5114371;28;20111;-78
2022/10/08 05:51:15;;;;;;;21.90;12.15;;;;;;;16.80;100.00;100734.94;5114022;28;20055;-77
2022/10/08 05:53:46;;;;;;;23.20;10.70;;;;;;;17.22;100.00;100717.72;5114403;28;20027;-77
2022/10/08 05:56:13;;;;;;;17.50;9.77;;;;;;;17.25;100.00;100750.19;5114352;28;20482;-77
2022/10/08 05:58:40;;;;;;;19.08;9.75;;;;;;;17.63;100.00;100757.06;5113971;28;20054;-79
2022/10/08 06:01:09;;;;;;;21.80;9.85;;;;;;;17.66;100.00;100746.66;5114093;28;20091;-78
2022/10/08 06:03:34;;;;;;;20.92;10.07;;;;;;;16.87;100.00;100677.31;5113556;28;20115;-77
2022/10/08 06:06:03;;;;;;;19.55;10.50;;;;;;;17.43;100.00;100738.25;5114190;27;20409;-78
2022/10/08 06:08:28;;;;;;;22.50;10.45;;;;;;;17.47;100.00;100683.22;5113406;28;20030;-79
2022/10/08 06:10:54;;;;;;;20.35;10.20;;;;;;;17.48;100.00;100675.44;5113984;28;20028;-80
2022/10/08 06:13:21;;;;;;;17.98;9.73;;;;;;;18.79;100.00;100753.34;5113842;28;20050;-80
2022/10/08 06:16:01;;;;;;;19.73;9.60;;;;;;;18.64;100.00;100692.28;5113794;28;20028;-79
2022/10/08 06:18:30;;;;;;;28.58;11.38;;;;;;;18.60;100.00;100755.97;5112385;28;20028;-77
2022/10/08 06:20:56;;;;;;;21.65;10.63;;;;;;;18.90;100.00;100738.16;5113836;28;20058;-80
2022/10/08 06:23:23;;;;;;;15.40;10.35;;;;;;;19.42;100.00;100751.84;5114141;28;20032;-82
2022/10/08 06:25:49;;;;;;;19.13;10.68;;;;;;;18.84;100.00;100712.69;5113580;28;20055;-80
2022/10/08 06:28:14;;;;;;;21.85;10.40;;;;;;;18.73;100.00;100754.47;5113843;28;20063;-77
2022/10/08 06:30:41;;;;;;;16.10;10.02;;;;;;;18.59;100.00;100748.31;5113255;28;20031;-80
2022/10/08 06:33:07;;;;;;;15.43;9.25;;;;;;;18.87;100.00;100749.47;5113273;28;20066;-79
2022/10/08 06:35:33;;;;;;;13.77;9.45;;;;;;;17.58;100.00;100738.44;5113101;28;20080;-80
2022/10/08 06:37:59;;;;;;;14.23;8.98;;;;;;;18.73;100.00;100754.47;5112404;28;20020;-77
2022/10/08 06:40:24;;;;;;;14.23;8.77;;;;;;;18.36;100.00;100715.09;5113277;28;20051;-78
2022/10/08 06:42:50;;;;;;;13.10;8.45;;;;;;;19.18;100.00;100740.19;5113051;28;20030;-80
2022/10/08 06:45:16;;;;;;;14.95;8.85;;;;;;;18.86;100.00;100742.63;5112181;28;20038;-79
2022/10/08 06:47:42;;;;;;;18.10;9.43;;;;;;;19.10;100.00;100698.47;5113074;28;20108;-80
2022/10/08 06:50:07;;;;;;;15.90;9.98;;;;;;;19.11;100.00;100752.56;5113121;28;20076;-77
2022/10/08 06:52:33;;;;;;;15.25;9.40;;;;;;;18.77;100.00;100756.00;5113302;28;20023;-80
2022/10/08 06:54:58;;;;;;;13.55;9.60;;;;;;;19.91;100.00;100757.84;5112219;28;20141;-80
2022/10/08 06:57:23;;;;;;;13.75;9.20;;;;;;;20.10;100.00;100736.13;5111633;28;20470;-77
2022/10/08 06:59:49;;;;;;;10.02;6.80;;;;;;;19.19;100.00;100646.47;5112487;28;20558;-82
2022/10/08 07:02:14;;;;;;;9.20;5.55;;;;;;;19.67;100.00;100753.06;5111410;28;20029;-81
2022/10/08 07:04:40;;;;;;;8.05;6.00;;;;;;;20.06;100.00;100688.13;5112713;28;20032;-81
2022/10/08 07:07:05;;;;;;;8.57;5.78;;;;;;;19.59;100.00;100656.38;5112806;28;20535;-82
2022/10/08 07:09:30;;;;;;;10.60;6.18;;;;;;;20.38;100.00;100751.75;5112056;28;20036;-81
2022/10/08 07:11:56;;;;;;;13.32;5.72;;;;;;;20.65;100.00;100682.19;5112446;28;20030;-80
2022/10/08 07:14:21;;;;;;;8.10;5.97;;;;;;;20.59;100.00;100734.22;5112524;28;20106;-80
2022/10/08 07:16:47;;;;;;;9.27;6.40;;;;;;;20.84;100.00;100741.41;5112504;28;20039;-79
2022/10/08 07:19:12;;;;;;;8.60;6.15;;;;;;;20.68;100.00;100739.69;5111374;28;20020;-81
2022/10/08 07:21:39;;;;;;;10.18;6.32;;;;;;;20.73;100.00;100748.03;5112728;28;20469;-82
2022/10/08 07:24:05;;;;;;;9.63;6.25;;;;;;;20.99;100.00;100743.09;5112777;28;20059;-82
2022/10/08 07:26:33;;;;;;;8.73;6.65;;;;;;;21.42;100.00;100745.66;5112709;28;20027;-81
2022/10/08 07:29:05;;;;;;;9.27;6.30;;;;;;;21.16;100.00;100699.81;5110681;28;20122;-82
2022/10/08 07:31:33;;;;;;;8.40;6.43;;;;;;;20.81;100.00;100682.97;5112786;28;20028;-81
2022/10/08 07:34:00;;;;;;;7.50;5.78;;;;;;;20.55;100.00;100686.22;5112743;28;20032;-78
2022/10/08 07:36:27;;;;;;;7.72;6.30;;;;;;;20.88;100.00;100735.94;5110953;28;20512;-78
2022/10/08 07:39:00;;;;;;;9.60;5.93;;;;;;;21.56;100.00;100731.88;5112248;28;20035;-79
2022/10/08 07:41:27;;;;;;;8.32;6.03;;;;;;;21.35;100.00;100740.97;5111838;28;20088;-78
2022/10/08 07:43:58;;;;;;;10.10;5.65;;;;;;;21.49;100.00;100733.19;5112242;28;20058;-77
2022/10/08 07:46:25;;;;;;;7.00;5.95;;;;;;;21.05;100.00;100681.53;5112323;28;20068;-76
2022/10/08 07:48:52;;;;;;;6.75;5.80;;;;;;;21.34;100.00;100683.19;5112198;28;20028;-76
2022/10/08 07:51:19;;;;;;;8.52;5.50;;;;;;;21.42;100.00;100670.63;5112361;28;20072;-76
2022/10/08 07:53:44;;;;;;;6.35;5.10;;;;;;;21.78;99.46;100736.56;5111253;28;20027;-77
2022/10/08 07:56:14;;;;;;;9.38;5.32;;;;;;;21.61;100.00;100724.66;5110935;28;20391;-75
2022/10/08 07:58:40;;;;;;;8.65;5.22;;;;;;;20.96;100.00;100682.03;5111316;28;20028;-77
2022/10/08 08:01:10;;;;;;;6.72;5.20;;;;;;;21.27;100.00;100683.66;5111538;28;20031;-75
2022/10/08 08:03:35;;;;;;;6.57;4.75;;;;;;;22.02;100.00;100716.94;5112092;28;20035;-78
2022/10/08 08:06:02;;;;;;;6.07;4.93;;;;;;;21.90;93.97;100728.91;5111129;28;20085;-79
2022/10/08 08:08:28;;;;;;;6.85;4.70;;;;;;;21.40;99.88;100716.47;5109767;28;20522;-75
2022/10/08 08:10:58;;;;;;;8.00;5.05;;;;;;;22.30;93.66;100663.22;5111510;28;20031;-77
2022/10/08 08:13:24;;;;;;;9.02;5.30;;;;;;;21.88;95.46;100729.91;5110966;28;20119;-77
2022/10/08 08:16:00;;;;;;;11.15;5.70;;;;;;;22.09;95.74;100710.44;5111753;28;20074;-76
2022/10/08 08:18:32;;;;;;;8.70;5.22;;;;;;;21.83;95.20;100669.84;5110944;28;20119;-78
2022/10/08 08:21:01;;;;;;;;;;;;;;;21.95;94.15;100726.84;5111907;28;20032;-77
2022/10/08 08:23:32;;;;;;;5.65;4.72;;;;;;;22.25;87.84;100673.09;5115691;28;19968;-77
2022/10/08 08:26:05;;;;;;;8.35;5.30;;;;;;;21.43;90.17;100676.63;5116045;28;20503;-77
2022/10/08 08:28:31;;;;;;;6.82;5.20;;;;;;;22.14;92.55;100731.72;5116006;28;20032;-79
2022/10/08 08:31:10;;;;;;;5.43;4.68;;;;;;;21.99;95.03;100728.31;5115405;28;20031;-76
2022/10/08 08:33:35;;;;;;;7.30;4.72;;;;;;;22.87;88.13;100712.22;5115711;28;20074;-74
2022/10/08 08:36:01;;;;;;;6.63;4.88;;;;;;;22.40;85.94;100651.34;5115839;28;20024;-76
2022/10/08 08:38:27;;;;;;;6.55;4.90;;;;;;;21.68;93.12;100668.16;5115757;28;20100;-75
2022/10/08 08:40:55;;;;;;;7.40;4.55;;;;;;;22.31;93.69;100710.72;5115677;28;20075;-77
2022/10/08 08:43:22;;;;;;;6.53;5.13;;;;;;;22.46;92.35;100701.13;5115700;28;20080;-74
2022/10/08 08:45:48;;;;;;;6.88;4.80;;;;;;;22.19;88.38;100670.88;5115401;28;20024;-75
2022/10/08 08:48:19;;;;;;;7.93;4.63;;;;;;;22.43;85.40;100695.22;5115076;28;20039;-75
2022/10/08 08:50:49;;;;;;;6.82;4.88;;;;;;;22.16;86.17;100660.75;5114743;28;20028;-75
2022/10/08 08:53:16;;;;;;;9.23;4.93;;;;;;;22.40;88.20;100679.03;5115116;28;20418;-75
2022/10/08 08:55:45;;;;;;;7.78;4.68;;;;;;;21.87;92.74;100641.03;5114935;28;20028;-77
2022/10/08 08:58:44;;;;;;;6.72;4.93;;;;;;;21.55;100.00;100692.22;5115269;27;20084;-76
2022/10/08 09:01:41;;;;;;;6.43;5.20;;;;;;;21.62;100.00;100677.16;5115347;28;20485;-78
2022/10/08 09:04:30;;;;;;;6.93;5.30;;;;;;;20.70;100.00;100585.34;5107312;28;20107;-75
2022/10/08 09:06:58;;;;;;;4.80;4.28;;;;;;;21.23;100.00;100648.56;5114861;28;20096;-76
2022/10/08 09:09:54;;;;;;;6.72;4.88;;;;;;;22.53;94.86;100673.84;5115531;28;20110;-75
2022/10/08 09:12:42;;;;;;;6.72;4.80;;;;;;;21.16;97.83;100580.84;5115061;27;20409;-76
2022/10/08 09:15:31;;;;;;;8.32;4.70;;;;;;;21.81;96.21;100659.56;5114803;28;20034;-75
2022/10/08 09:18:01;;;;;;;4.55;4.13;;;;;;;21.85;90.86;100657.63;5114700;28;20032;-79
2022/10/08 09:20:26;;;;;;;8.50;4.57;;;;;;;21.65;92.65;100616.59;5115184;28;20043;-78
2022/10/08 09:22:53;;;;;;;6.13;4.70;;;;;;;21.26;98.60;100601.78;5113750;28;20020;-79
2022/10/08 09:25:24;;;;;;;8.18;5.10;;;;;;;21.62;99.13;100653.00;5114974;27;20118;-77
2022/10/08 09:27:52;;;;;;;5.40;4.43;;;;;;;21.94;96.94;100651.84;5114805;28;20053;-78
2022/10/08 09:30:23;;;;;;;6.93;4.10;;;;;;;21.60;96.67;100647.94;5114098;28;20061;-77
2022/10/08 09:32:51;;;;;;;7.05;4.20;;;;;;;21.25;94.90;100571.69;5113040;28;20057;-79
2022/10/08 09:35:17;;;;;;;7.57;3.80;;;;;;;21.59;94.73;100607.44;5114603;28;20042;-76
2022/10/08 09:37:45;;;;;;;6.65;4.63;;;;;;;21.35;100.00;100625.31;5113340;28;20118;-78
2022/10/08 09:40:11;;;;;;;4.95;3.95;;;;;;;22.29;89.77;100627.91;5112767;28;20047;-76
2022/10/08 09:42:36;;;;;;;4.65;3.60;;;;;;;23.24;76.98;100568.63;5115210;28;20047;-79
2022/10/08 09:45:22;;;;;;;7.65;4.05;;;;;;;23.37;76.35;100564.28;5113702;28;20413;-77
2022/10/08 09:48:27;;;;;;;8.90;5.13;;;;;;;23.48;73.83;100626.63;5112933;28;20059;-76
2022/10/08 09:51:24;;;;;;;7.40;3.53;;;;;;;23.77;67.38;100573.41;5114073;28;20092;-77
2022/10/08 09:53:53;;;;;;;8.15;4.40;;;;;;;24.34;68.42;100614.28;5100282;28;20108;-77
2022/10/08 09:56:26;;;;;;;6.10;3.50;;;;;;;23.90;67.65;100613.16;5114078;28;20030;-77
2022/10/08 09:58:56;;;;;;;5.25;3.85;;;;;;;23.61;65.44;100603.22;5113058;28;20031;-77
2022/10/08 10:01:23;;;;;;;6.75;4.10;;;;;;;23.63;65.84;100534.63;5114110;28;20039;-78
2022/10/08 10:03:54;;;;;;;4.90;4.00;;;;;;;24.30;63.37;100602.47;5114136;28;20023;-75
2022/10/08 10:06:42;;;;;;;6.50;3.55;;;;;;;24.83;60.02;100571.47;5114190;28;20047;-76
2022/10/08 10:09:22;;;;;;;4.68;3.92;;;;;;;24.39;55.95;100580.97;5113641;28;20478;-75
2022/10/08 10:11:58;;;;;;;4.00;3.30;;;;;;;25.11;55.77;100587.53;5112681;28;20047;-76
2022/10/08 10:14:42;;;;;;;4.15;2.95;;;;;;;25.22;54.23;100584.88;5113744;28;20027;-75
2022/10/08 10:17:28;;;;;;;4.97;3.15;;;;;;;25.62;52.83;100568.63;5113767;28;20031;-74
2022/10/08 10:20:04;;;;;;;4.80;3.30;;;;;;;26.11;52.98;100578.47;5113437;28;20521;-79
2022/10/08 10:22:56;;;;;;;4.82;3.28;;;;;;;25.79;51.88;100575.88;5113571;28;20024;-76
2022/10/08 10:25:34;;;;;;;;;;;;;;;24.63;56.19;100572.13;5076740;28;20128;-75
2022/10/08 10:28:38;;;;;;;4.50;4.10;;;;;;;24.54;57.86;100574.63;5112380;28;20019;-75
2022/10/08 10:31:12;;;;;;;6.63;4.30;;;;;;;25.37;54.89;100566.31;5111061;28;20049;-74
2022/10/08 10:33:56;;;;;;;3.55;3.00;;;;;;;24.70;54.10;100517.88;5113243;28;20144;-74
2022/10/08 10:36:25;;;;;;;4.32;3.35;;;;;;;24.47;53.84;100527.44;5113202;28;20073;-74
2022/10/08 10:39:00;;;;;;;5.97;3.47;;;;;;;24.91;54.04;100543.06;5111857;28;20056;-74
2022/10/08 10:41:34;;;;;;;7.47;3.90;;;;;;;25.29;54.16;100550.47;5113241;28;20031;-74
2022/10/08 10:44:05;;;;;;;4.22;2.95;;;;;;;24.69;52.71;100534.41;5112398;28;20066;-77
2022/10/08 10:46:48;;;;;;;3.53;2.85;;;;;;;25.10;51.12;100545.03;5112609;28;20032;-75
2022/10/08 10:49:25;;;;;;;3.70;3.00;;;;;;;24.99;49.69;100451.38;5112523;28;20501;-74
2022/10/08 10:52:38;;;;;;;3.25;2.70;;;;;;;25.20;49.90;100526.91;5112815;28;20027;-76
2022/10/08 10:55:16;;;;;;;4.55;3.03;;;;;;;25.43;50.90;100529.34;5111788;28;20127;-76
2022/10/08 10:57:44;;;;;;;3.83;2.70;;;;;;;25.53;49.19;100530.25;5113354;28;20577;-77
2022/10/08 11:00:47;;;;;;;3.60;2.80;;;;;;;25.85;48.17;100512.00;5112647;28;20085;-76
2022/10/08 11:03:29;;;;;;;4.75;3.08;;;;;;;24.73;48.99;100461.25;5113010;28;20080;-76
2022/10/08 11:06:16;;;;;;;3.72;2.67;;;;;;;25.76;47.75;100511.00;5112619;28;20039;-79
2022/10/08 11:08:58;;;;;;;6.03;2.70;;;;;;;25.35;46.75;100466.63;5112927;28;20027;-76
2022/10/08 11:12:01;;;;;;;3.92;2.80;;;;;;;25.88;46.59;100503.94;5112773;28;20036;-77
2022/10/08 11:14:46;;;;;;;3.47;2.85;;;;;;;25.97;46.89;100502.34;5096202;28;20081;-76
2022/10/08 11:17:36;;;;;;;3.97;2.60;;;;;;;26.14;45.49;100489.59;5112814;28;20012;-76
2022/10/08 11:20:23;;;;;;;4.35;2.17;;;;;;;25.68;46.46;100495.16;5112527;28;20028;-76
2022/10/08 11:23:10;;;;;;;5.55;2.45;;;;;;;26.12;46.89;100486.28;5112403;28;20034;-75
2022/10/08 11:26:00;;;;;;;4.05;2.60;;;;;;;26.88;44.14;100475.31;5112375;28;20087;-76
2022/10/08 11:28:45;;;;;;;3.45;2.53;;;;;;;25.23;46.61;100475.44;5112306;28;20054;-74
2022/10/08 11:31:23;;;;;;;2.97;2.38;;;;;;;25.54;45.08;100468.59;5111411;28;20031;-75
2022/10/08 11:33:50;;;;;;;4.03;2.83;;;;;;;25.28;46.20;100426.41;5112403;28;20038;-74